createdAt,value
2018-07-25T00:01:58.890Z,94.06
2018-07-25T00:04:27.963Z,94.54
2018-07-25T00:06:57.013Z,95.92
2018-07-25T00:09:26.091Z,94.57
2018-07-25T00:14:32.928Z,91.87
2018-07-25T00:17:01.991Z,92.05
2018-07-25T00:19:32.007Z,90.72
2018-07-25T00:24:36.869Z,90.89
2018-07-25T00:29:42.620Z,90.36
2018-07-25T00:34:47.389Z,89.00
2018-07-25T00:37:17.391Z,89.44
2018-07-25T00:39:46.522Z,91.53
2018-07-25T00:42:17.530Z,92.50
2018-07-25T00:44:46.590Z,93.51
2018-07-25T00:47:15.662Z,94.74
2018-07-25T00:54:58.267Z,93.03
2018-07-25T00:57:28.286Z,94.10
2018-07-25T00:59:57.393Z,94.21
2018-07-25T01:02:26.451Z,94.96
2018-07-25T01:07:34.259Z,93.31
2018-07-25T01:10:03.319Z,93.10
2018-07-25T01:12:32.373Z,92.77
2018-07-25T01:15:01.472Z,93.55
2018-07-25T01:17:30.521Z,93.86
2018-07-25T01:19:59.630Z,93.74
2018-07-25T01:25:06.593Z,92.65
2018-07-25T01:27:35.658Z,91.71
2018-07-25T01:30:04.726Z,91.52
2018-07-25T01:32:33.786Z,91.60
2018-07-25T01:35:02.899Z,91.72
2018-07-25T01:37:31.936Z,91.89
2018-07-25T01:40:01.060Z,91.61
2018-07-25T01:42:30.111Z,93.14
2018-07-25T01:47:35.027Z,91.77
2018-07-25T01:50:04.097Z,92.67
2018-07-25T01:52:34.168Z,93.65
2018-07-25T01:57:39.050Z,92.98
2018-07-25T02:00:08.128Z,92.18
2018-07-25T02:02:37.209Z,92.56
2018-07-25T02:05:08.308Z,93.06
2018-07-25T02:07:37.378Z,93.38
2018-07-25T02:14:08.386Z,93.46
2018-07-25T02:16:37.449Z,92.97
2018-07-25T02:19:06.679Z,92.85
2018-07-25T02:21:35.758Z,92.43
2018-07-25T02:24:04.862Z,92.54
2018-07-25T02:26:33.914Z,92.75
2018-07-25T02:31:38.753Z,92.81
2018-07-25T02:36:43.613Z,92.88
2018-07-25T02:39:12.689Z,93.74
2018-07-25T02:41:41.752Z,94.42
2018-07-25T02:44:10.830Z,94.86
2018-07-25T02:46:39.885Z,95.32
2018-07-25T02:49:08.949Z,95.83
2018-07-25T02:51:38.018Z,96.47
2018-07-25T02:54:07.077Z,96.95
2018-07-25T02:59:11.396Z,96.93
2018-07-25T03:01:40.451Z,97.30
2018-07-25T03:04:10.446Z,97.38
2018-07-25T03:09:15.329Z,97.21
2018-07-25T03:11:44.448Z,96.82
2018-07-25T03:14:13.511Z,97.57
2018-07-25T03:16:42.650Z,98.09
2018-07-25T03:19:11.681Z,98.58
2018-07-25T03:21:40.740Z,98.84
2018-07-25T03:24:09.805Z,98.67
2018-07-25T03:26:38.891Z,98.41
2018-07-25T03:29:07.929Z,98.65
2018-07-25T03:31:37.075Z,98.82
2018-07-25T03:39:18.517Z,98.46
2018-07-25T03:41:47.569Z,98.62
2018-07-25T03:44:16.626Z,98.73
2018-07-25T03:46:49.085Z,98.89
2018-07-25T03:49:19.108Z,99.03
2018-07-25T03:51:48.175Z,98.98
2018-07-25T03:54:17.493Z,98.93
2018-07-25T03:59:22.319Z,98.67
2018-07-25T04:01:51.575Z,98.70
2018-07-25T04:04:20.628Z,98.85
2018-07-25T04:06:49.704Z,99.01
2018-07-25T04:09:18.830Z,98.99
2018-07-25T04:16:59.265Z,97.04
2018-07-25T04:19:32.897Z,96.41
2018-07-25T04:22:02.942Z,95.76
2018-07-25T04:24:33.976Z,95.42
2018-07-25T04:27:03.029Z,95.11
2018-07-25T04:29:32.067Z,95.12
2018-07-25T04:32:01.352Z,95.41
2018-07-25T04:34:30.433Z,95.44
2018-07-25T04:36:59.513Z,95.09
2018-07-25T04:42:04.303Z,94.30
2018-07-25T04:47:09.162Z,93.68
2018-07-25T04:49:40.204Z,93.63
2018-07-25T04:52:09.276Z,94.12
2018-07-25T04:54:38.616Z,93.89
2018-07-25T04:57:07.677Z,93.67
2018-07-25T04:59:36.744Z,93.27
2018-07-25T05:02:06.028Z,92.34
2018-07-25T05:04:35.089Z,90.86
2018-07-25T05:07:05.160Z,90.60
2018-07-25T05:09:34.157Z,91.08
2018-07-25T05:12:03.682Z,91.85
2018-07-25T05:14:32.727Z,93.17
2018-07-25T05:19:37.782Z,91.03
2018-07-25T05:27:21.379Z,89.06
2018-07-25T05:29:53.706Z,89.69
2018-07-25T05:32:22.760Z,89.78
2018-07-25T05:34:51.993Z,88.00
2018-07-25T05:37:22.304Z,86.40
2018-07-25T05:39:51.452Z,85.55
2018-07-25T05:44:56.313Z,85.60
2018-07-25T05:50:01.162Z,81.57
2018-07-25T05:57:58.062Z,77.78
2018-07-25T06:00:50.670Z,77.21
2018-07-25T06:03:27.437Z,76.77
2018-07-25T06:06:04.959Z,75.15
2018-07-25T06:08:37.884Z,75.85
2018-07-25T06:13:45.563Z,76.15
2018-07-25T06:16:16.758Z,76.17
2018-07-25T06:18:46.920Z,75.91
2018-07-25T06:21:30.906Z,77.01
2018-07-25T06:26:35.826Z,75.61
2018-07-25T06:29:04.894Z,74.62
2018-07-25T06:31:37.275Z,72.65
2018-07-25T06:34:06.341Z,72.04
2018-07-25T06:36:43.671Z,72.30
2018-07-25T06:41:49.179Z,70.20
2018-07-25T06:44:18.241Z,69.25
2018-07-25T06:46:50.689Z,68.57
2018-07-25T06:51:55.561Z,67.08
2018-07-25T06:54:25.536Z,68.59
2018-07-25T06:59:30.322Z,65.38
2018-07-25T07:02:00.325Z,65.54
2018-07-25T07:04:29.722Z,66.42
2018-07-25T07:06:59.826Z,65.86
2018-07-25T07:12:04.931Z,64.66
2018-07-25T07:14:33.900Z,65.47
2018-07-25T07:17:02.976Z,65.96
2018-07-25T07:22:08.788Z,64.66
2018-07-25T07:27:13.641Z,63.40
2018-07-25T07:29:42.710Z,64.46
2018-07-25T07:34:47.496Z,63.63
2018-07-25T07:37:18.118Z,63.25
2018-07-25T07:39:47.176Z,63.27
2018-07-25T07:42:16.234Z,60.07
2018-07-25T07:44:45.693Z,58.09
2018-07-25T07:47:14.946Z,58.62
2018-07-25T07:49:44.941Z,59.06
2018-07-25T07:57:25.903Z,58.46
2018-07-25T07:59:55.037Z,58.33
2018-07-25T08:02:24.097Z,55.98
2018-07-25T08:04:53.209Z,58.06
2018-07-25T08:09:58.030Z,55.30
2018-07-25T08:12:27.649Z,55.84
2018-07-25T08:14:56.711Z,55.98
2018-07-25T08:20:01.700Z,54.58
2018-07-25T08:22:30.665Z,52.75
2018-07-25T08:25:03.549Z,55.43
2018-07-25T08:27:35.508Z,54.36
2018-07-25T08:32:40.887Z,51.19
2018-07-25T08:35:10.125Z,50.14
2018-07-25T08:37:39.393Z,52.32
2018-07-25T08:40:08.490Z,52.79
2018-07-25T08:42:39.535Z,52.88
2018-07-25T08:45:09.545Z,52.74
2018-07-25T08:50:14.449Z,49.40
2018-07-25T08:52:43.693Z,51.15
2018-07-25T08:55:12.744Z,50.79
2018-07-25T08:57:41.824Z,48.21
2018-07-25T09:00:15.297Z,49.54
2018-07-25T09:05:20.270Z,47.62
2018-07-25T09:07:50.280Z,49.33
2018-07-25T09:10:19.522Z,45.79
2018-07-25T09:12:48.658Z,48.61
2018-07-25T09:17:55.823Z,44.52
2018-07-25T09:20:29.221Z,46.53
2018-07-25T09:22:58.286Z,44.99
2018-07-25T09:25:28.309Z,44.65
2018-07-25T09:27:57.354Z,40.72
2018-07-25T09:33:02.198Z,41.03
2018-07-25T09:35:31.509Z,37.67
2018-07-25T09:38:00.548Z,32.79
2018-07-25T09:40:29.594Z,34.94
2018-07-25T09:42:58.861Z,32.79
2018-07-25T09:45:27.921Z,32.86
2018-07-25T09:47:56.986Z,34.61
2018-07-25T09:50:26.365Z,34.03
2018-07-25T09:52:55.633Z,32.90
2018-07-25T09:55:24.642Z,31.98
2018-07-25T09:57:53.673Z,33.43
2018-07-25T10:00:24.346Z,29.14
2018-07-25T10:02:53.408Z,33.30
2018-07-25T10:05:22.467Z,28.69
2018-07-25T10:10:30.511Z,32.33
2018-07-25T10:12:59.564Z,33.48
2018-07-25T10:18:04.490Z,32.30
2018-07-25T10:20:35.546Z,29.02
2018-07-25T10:23:04.610Z,29.01
2018-07-25T10:25:34.646Z,26.91
2018-07-25T10:28:03.700Z,27.84
2018-07-25T10:30:32.809Z,27.76
2018-07-25T10:33:02.120Z,31.64
2018-07-25T10:35:31.116Z,31.42
2018-07-25T10:38:00.166Z,31.01
2018-07-25T10:40:29.375Z,29.50
2018-07-25T10:42:58.632Z,28.43
2018-07-25T10:45:27.685Z,28.16
2018-07-25T10:47:56.732Z,26.39
2018-07-25T10:50:25.776Z,25.30
2018-07-25T10:52:54.867Z,24.60
2018-07-25T10:55:23.910Z,25.57
2018-07-25T10:57:53.279Z,24.65
2018-07-25T11:00:22.345Z,24.99
2018-07-25T11:02:51.400Z,29.37
2018-07-25T11:05:20.917Z,31.21
2018-07-25T11:07:50.964Z,30.13
2018-07-25T11:10:22.042Z,27.52
2018-07-25T11:12:52.029Z,27.20
2018-07-25T11:15:21.108Z,25.18
2018-07-25T11:17:50.347Z,25.90
2018-07-25T11:20:19.538Z,25.26
2018-07-25T11:22:48.831Z,29.73
2018-07-25T11:25:18.944Z,30.34
2018-07-25T11:27:48.001Z,28.01
2018-07-25T11:32:53.040Z,26.45
2018-07-25T11:37:57.714Z,30.90
2018-07-25T11:40:26.772Z,28.26
2018-07-25T11:42:56.882Z,24.73
2018-07-25T11:45:26.233Z,26.48
2018-07-25T11:50:31.355Z,30.79
2018-07-25T11:53:00.421Z,24.09
2018-07-25T11:55:29.534Z,24.83
2018-07-25T11:57:59.622Z,26.01
2018-07-25T12:00:28.677Z,29.01
2018-07-25T12:05:33.572Z,27.80
2018-07-25T12:08:02.598Z,21.25
2018-07-25T12:10:32.660Z,21.88
2018-07-25T12:13:01.859Z,22.87
2018-07-25T12:15:30.894Z,22.40
2018-07-25T12:18:00.847Z,19.09
2018-07-25T12:20:30.146Z,19.91
2018-07-25T12:22:59.381Z,21.76
2018-07-25T12:25:28.444Z,21.07
2018-07-25T12:27:57.491Z,20.46
2018-07-25T12:33:03.243Z,20.37
2018-07-25T12:35:35.325Z,21.38
2018-07-25T12:38:04.368Z,21.83
2018-07-25T12:40:33.408Z,28.60
2018-07-25T12:43:02.461Z,28.08
2018-07-25T12:45:31.614Z,28.52
2018-07-25T12:48:00.661Z,30.62
2018-07-25T12:50:29.734Z,31.77
2018-07-25T12:52:58.887Z,27.47
2018-07-25T12:55:28.345Z,25.41
2018-07-25T12:57:59.833Z,22.72
2018-07-25T13:00:28.913Z,24.15
2018-07-25T13:02:57.967Z,21.12
2018-07-25T13:05:27.189Z,22.77
2018-07-25T13:10:33.442Z,23.85
2018-07-25T13:13:02.445Z,24.99
2018-07-25T13:15:31.514Z,24.42
2018-07-25T13:18:00.576Z,24.36
2018-07-25T13:20:29.794Z,21.43
2018-07-25T13:22:58.886Z,20.31
2018-07-25T13:25:27.900Z,20.85
2018-07-25T13:27:57.158Z,20.23
2018-07-25T13:33:02.133Z,21.47
2018-07-25T13:35:31.231Z,20.59
2018-07-25T13:40:37.629Z,20.11
2018-07-25T13:43:06.693Z,20.45
2018-07-25T13:45:35.843Z,19.10
2018-07-25T13:48:05.241Z,19.32
2018-07-25T13:50:34.288Z,18.62
2018-07-25T13:53:03.349Z,19.13
2018-07-25T13:55:36.328Z,21.12
2018-07-25T13:58:06.735Z,18.42
2018-07-25T14:03:13.041Z,20.02
2018-07-25T14:05:42.086Z,22.81
2018-07-25T14:08:11.151Z,24.36
2018-07-25T14:10:41.228Z,19.67
2018-07-25T14:13:10.744Z,20.12
2018-07-25T14:15:40.737Z,19.99
2018-07-25T14:18:09.889Z,20.05
2018-07-25T14:20:39.060Z,18.45
2018-07-25T14:23:10.594Z,18.84
2018-07-25T14:25:39.641Z,19.80
2018-07-25T14:28:08.697Z,22.86
2018-07-25T14:30:37.789Z,18.03
2018-07-25T14:33:07.068Z,20.83
2018-07-25T14:35:37.115Z,19.16
2018-07-25T14:38:08.171Z,20.27
2018-07-25T14:40:37.232Z,20.55
2018-07-25T14:43:07.287Z,22.56
2018-07-25T14:45:36.762Z,24.32
2018-07-25T14:48:06.819Z,23.61
2018-07-25T14:50:35.864Z,26.43
2018-07-25T14:53:04.928Z,28.50
2018-07-25T14:55:34.892Z,31.97
2018-07-25T14:58:03.977Z,31.59
2018-07-25T15:00:33.057Z,29.20
2018-07-25T15:03:02.194Z,29.75
2018-07-25T15:05:31.232Z,24.11
2018-07-25T15:08:00.289Z,22.17
2018-07-25T15:10:29.359Z,21.78
2018-07-25T15:12:58.860Z,18.59
2018-07-25T15:15:27.924Z,24.89
2018-07-25T15:17:56.981Z,24.97
2018-07-25T15:23:02.009Z,30.20
2018-07-25T15:25:31.062Z,29.62
2018-07-25T15:28:01.227Z,22.72
2018-07-25T15:30:32.608Z,21.86
2018-07-25T15:33:06.685Z,20.09
2018-07-25T15:38:11.545Z,20.36
2018-07-25T15:40:42.733Z,18.82
2018-07-25T15:43:12.877Z,21.48
2018-07-25T15:45:41.913Z,21.75
2018-07-25T15:50:52.476Z,29.30
2018-07-25T15:53:21.660Z,30.30
2018-07-25T15:55:50.702Z,29.98
2018-07-25T16:00:55.618Z,29.94
2018-07-25T16:03:24.809Z,28.83
2018-07-25T16:05:53.839Z,25.17
2018-07-25T16:08:24.065Z,23.70
2018-07-25T16:10:54.155Z,23.77
2018-07-25T16:13:24.232Z,25.15
2018-07-25T16:15:53.273Z,27.37
2018-07-25T16:18:22.673Z,27.99
2018-07-25T16:20:51.717Z,26.26
2018-07-25T16:23:20.792Z,27.27
2018-07-25T16:25:49.851Z,26.25
2018-07-25T16:28:19.170Z,25.56
2018-07-25T16:30:48.234Z,27.05
2018-07-25T16:33:17.307Z,27.69
2018-07-25T16:35:48.356Z,31.27
2018-07-25T16:38:17.408Z,31.37
2018-07-25T16:40:46.469Z,33.64
2018-07-25T16:43:15.551Z,36.18
2018-07-25T16:45:44.901Z,39.21
2018-07-25T16:48:15.936Z,40.58
2018-07-25T16:50:47.037Z,41.87
2018-07-25T16:53:16.149Z,42.09
2018-07-25T16:55:46.166Z,42.61
2018-07-25T16:58:15.578Z,41.48
2018-07-25T17:00:44.664Z,42.74
2018-07-25T17:03:13.718Z,44.74
2018-07-25T17:08:18.556Z,50.37
2018-07-25T17:10:47.816Z,51.52
2018-07-25T17:13:16.995Z,55.19
2018-07-25T17:15:46.044Z,56.23
2018-07-25T17:18:15.097Z,55.57
2018-07-25T17:20:45.341Z,56.01
2018-07-25T17:25:50.212Z,55.79
2018-07-25T17:28:29.833Z,58.76
2018-07-25T17:33:41.355Z,59.90
2018-07-25T17:36:19.478Z,58.44
2018-07-25T17:38:52.534Z,58.26
2018-07-25T17:43:57.407Z,57.01
2018-07-25T17:46:26.485Z,56.67
2018-07-25T17:48:55.519Z,54.85
2018-07-25T17:51:41.757Z,60.71
2018-07-25T17:54:14.507Z,63.07
2018-07-25T17:56:43.585Z,59.95
2018-07-25T17:59:14.614Z,59.92
2018-07-25T18:01:43.674Z,60.37
2018-07-25T18:04:13.049Z,60.37
2018-07-25T18:06:42.119Z,60.90
2018-07-25T18:11:47.982Z,59.11
2018-07-25T18:14:17.036Z,57.47
2018-07-25T18:16:46.110Z,58.68
2018-07-25T18:19:15.179Z,55.96
2018-07-25T18:21:46.121Z,58.86
2018-07-25T18:24:15.229Z,60.24
2018-07-25T18:29:20.149Z,57.46
2018-07-25T18:31:50.089Z,62.56
2018-07-25T18:34:20.113Z,65.45
2018-07-25T18:36:49.162Z,68.69
2018-07-25T18:39:21.963Z,65.37
2018-07-25T18:41:51.014Z,64.32
2018-07-25T18:44:20.112Z,66.26
2018-07-25T18:49:24.975Z,66.36
2018-07-25T18:51:54.062Z,65.41
2018-07-25T18:54:23.317Z,67.09
2018-07-25T18:59:28.139Z,66.67
2018-07-25T19:01:57.263Z,69.14
2018-07-25T19:04:26.257Z,68.08
2018-07-25T19:06:56.313Z,67.72
2018-07-25T19:09:25.369Z,65.30
2018-07-25T19:11:54.426Z,62.93
2018-07-25T19:16:59.211Z,64.06
2018-07-25T19:19:28.285Z,64.75
2018-07-25T19:21:58.295Z,68.44
2018-07-25T19:24:27.337Z,69.56
2018-07-25T19:26:56.421Z,66.84
2018-07-25T19:29:27.437Z,67.41
2018-07-25T19:31:56.621Z,71.17
2018-07-25T19:34:25.680Z,74.01
2018-07-25T19:36:54.733Z,78.62
2018-07-25T19:39:27.109Z,76.84
2018-07-25T19:44:31.997Z,75.48
2018-07-25T19:47:02.170Z,73.44
2018-07-25T19:49:31.239Z,73.42
2018-07-25T19:52:00.284Z,73.15
2018-07-25T19:54:30.379Z,74.05
2018-07-25T19:56:59.353Z,73.86
2018-07-25T19:59:28.403Z,74.58
2018-07-25T20:01:57.489Z,74.53
2018-07-25T20:04:26.545Z,74.52
2018-07-25T20:06:55.653Z,74.65
2018-07-25T20:09:24.651Z,75.79
2018-07-25T20:11:53.699Z,77.90
2018-07-25T20:19:34.330Z,78.21
2018-07-25T20:22:03.382Z,78.30
2018-07-25T20:24:32.452Z,78.40
2018-07-25T20:27:02.417Z,74.35
2018-07-25T20:29:31.567Z,74.36
2018-07-25T20:32:00.577Z,74.24
2018-07-25T20:34:29.630Z,73.89
2018-07-25T20:36:58.714Z,75.07
2018-07-25T20:39:27.817Z,75.24
2018-07-25T20:41:57.816Z,77.44
2018-07-25T20:44:26.878Z,75.87
2018-07-25T20:46:55.977Z,76.18
2018-07-25T20:49:26.164Z,76.00
2018-07-25T20:51:57.636Z,74.96
2018-07-25T20:59:38.267Z,77.28
2018-07-25T21:02:07.306Z,76.93
2018-07-25T21:04:36.348Z,76.96
2018-07-25T21:07:05.412Z,77.48
2018-07-25T21:09:36.459Z,76.53
2018-07-25T21:12:05.640Z,75.12
2018-07-25T21:14:35.673Z,75.41
2018-07-25T21:17:04.728Z,76.24
2018-07-25T21:19:33.777Z,76.06
2018-07-25T21:24:38.547Z,75.69
2018-07-25T21:27:07.665Z,75.66
2018-07-25T21:29:37.636Z,75.81
2018-07-25T21:32:08.691Z,76.20
2018-07-25T21:34:38.705Z,75.40
2018-07-25T21:37:09.745Z,77.68
2018-07-25T21:39:38.851Z,78.65
2018-07-25T21:42:08.078Z,78.16
2018-07-25T21:47:20.205Z,79.31
2018-07-25T21:49:49.687Z,81.06
2018-07-25T21:52:18.762Z,81.81
2018-07-25T21:57:24.550Z,81.46
2018-07-25T21:59:53.613Z,83.33
2018-07-25T22:02:22.677Z,81.58
2018-07-25T22:04:52.669Z,83.83
2018-07-25T22:07:21.740Z,83.69
2018-07-25T22:09:50.834Z,85.07
2018-07-25T22:12:19.897Z,87.68
2018-07-25T22:14:49.021Z,88.32
2018-07-25T22:17:18.146Z,88.58
2018-07-25T22:19:47.347Z,88.45
2018-07-25T22:24:52.137Z,87.70
2018-07-25T22:29:57.017Z,88.89
2018-07-25T22:32:26.083Z,87.49
2018-07-25T22:37:30.946Z,88.63
2018-07-25T22:40:00.015Z,88.34
2018-07-25T22:42:29.087Z,88.05
2018-07-25T22:44:58.150Z,89.04
2018-07-25T22:47:30.994Z,86.71
2018-07-25T22:50:00.054Z,88.95
2018-07-25T22:52:29.105Z,89.05
2018-07-25T22:55:02.193Z,89.68
2018-07-25T22:57:32.250Z,88.89
2018-07-25T23:00:01.448Z,91.02
2018-07-25T23:02:30.505Z,89.95
2018-07-25T23:04:59.630Z,88.08
2018-07-25T23:07:28.707Z,87.48
2018-07-25T23:09:57.756Z,90.47
2018-07-25T23:12:27.869Z,89.38
2018-07-25T23:14:57.869Z,90.76
2018-07-25T23:17:26.926Z,88.49
2018-07-25T23:19:56.046Z,89.56
2018-07-25T23:22:27.009Z,92.06
2018-07-25T23:24:56.065Z,94.58
2018-07-25T23:27:26.105Z,95.00
2018-07-25T23:32:31.892Z,93.00
2018-07-25T23:35:01.917Z,91.13
2018-07-25T23:37:32.989Z,90.51
2018-07-25T23:40:02.058Z,89.29
2018-07-25T23:42:34.890Z,88.67
2018-07-25T23:45:03.962Z,88.15
2018-07-25T23:47:33.045Z,87.62
2018-07-25T23:50:02.127Z,87.38
2018-07-25T23:52:33.206Z,87.04
2018-07-25T23:55:02.274Z,87.87
2018-07-25T23:57:31.340Z,87.85
